Time;durP1;ratioP1;P1;durP2;ratioP2;P2;SDS_P1;SDS_P2;PMS_P1;PMS_P2;Temp;Humidity;BMP_temperature;BMP_pressure;BME280_temperature;BME280_humidity;BME280_pressure;Samples;Min_cycle;Max_cycle;Signal;HPM_P1;HPM_P2
2022/10/07 00:00:16;;;;;;;6.97;6.28;;;;;;;;;;4977869;28;20045;-64
2022/10/07 00:02:42;;;;;;;7.05;6.45;;;;;;;;;;4975976;28;20089;-63
2022/10/07 00:05:08;;;;;;;6.88;6.38;;;;;;;;;;4979242;28;20042;-64
2022/10/07 00:07:33;;;;;;;6.20;5.80;;;;;;;;;;4981622;28;20035;-64
2022/10/07 00:09:59;;;;;;;7.45;6.80;;;;;;;;;;4980315;28;20479;-64
2022/10/07 00:12:24;;;;;;;6.28;5.78;;;;;;;;;;4981951;28;20053;-64
2022/10/07 00:14:50;;;;;;;6.50;6.00;;;;;;;;;;4979956;28;20046;-64
2022/10/07 00:17:15;;;;;;;6.63;6.13;;;;;;;;;;4981842;28;20106;-64
2022/10/07 00:19:41;;;;;;;7.07;6.57;;;;;;;;;;4983658;28;20030;-64
2022/10/07 00:22:07;;;;;;;7.47;6.97;;;;;;;;;;4981652;28;20050;-64
2022/10/07 00:24:32;;;;;;;6.63;6.13;;;;;;;;;;4978943;28;20030;-64
2022/10/07 00:26:57;;;;;;;6.85;6.35;;;;;;;;;;4979992;28;20046;-64
2022/10/07 00:29:23;;;;;;;7.55;6.95;;;;;;;;;;4981014;28;20065;-64
2022/10/07 00:31:48;;;;;;;6.38;5.88;;;;;;;;;;4980381;28;20163;-64
2022/10/07 00:34:13;;;;;;;7.55;6.97;;;;;;;;;;4980449;28;20063;-64
2022/10/07 00:36:39;;;;;;;7.35;6.75;;;;;;;;;;4981284;28;20121;-64
2022/10/07 00:39:11;;;;;;;6.85;6.35;;;;;;;;;;4981462;28;20038;-64
2022/10/07 00:41:39;;;;;;;6.57;6.07;;;;;;;;;;4979506;28;20027;-64
2022/10/07 00:44:36;;;;;;;6.65;6.15;;;;;;;;;;4978520;28;20046;-64
2022/10/07 00:47:24;;;;;;;6.88;6.38;;;;;;;;;;4979547;28;20035;-64
2022/10/07 00:50:00;;;;;;;6.50;6.03;;;;;;;;;;4978348;28;20035;-64
2022/10/07 00:52:29;;;;;;;7.05;6.45;;;;;;;;;;4977428;28;20137;-64
2022/10/07 00:54:58;;;;;;;6.82;6.30;;;;;;;;;;4983474;28;20041;-64
2022/10/07 00:57:26;;;;;;;6.90;6.40;;;;;;;;;;4983501;28;20507;-64
2022/10/07 00:59:54;;;;;;;7.07;6.47;;;;;;;;;;4982090;28;20050;-64
2022/10/07 01:02:22;;;;;;;6.47;6.00;;;;;;;;;;4981395;28;20042;-64
2022/10/07 01:04:48;;;;;;;7.43;6.75;;;;;;;;;;4983116;28;20034;-63
2022/10/07 01:07:17;;;;;;;6.90;6.40;;;;;;;;;;4982588;28;20617;-64
2022/10/07 01:09:42;;;;;;;6.20;5.80;;;;;;;;;;4982000;28;20034;-64
2022/10/07 01:12:47;;;;;;;6.00;5.60;;;;;;;;;;4982288;28;20038;-64
2022/10/07 01:15:37;;;;;;;6.35;5.95;;;;;;;;;;4977860;28;20124;-64
2022/10/07 01:18:03;;;;;;;6.68;6.20;;;;;;;;;;4978365;28;20089;-64
2022/10/07 01:20:45;;;;;;;8.52;7.75;;;;;;;;;;4981817;28;20030;-64
2022/10/07 01:23:30;;;;;;;9.10;8.43;;;;;;;;;;4979793;28;20039;-64
2022/10/07 01:26:22;;;;;;;7.90;7.40;;;;;;;;;;4979080;28;20030;-64
2022/10/07 01:29:02;;;;;;;6.70;6.20;;;;;;;;;;4963999;28;20531;-64
2022/10/07 01:31:34;;;;;;;6.50;6.05;;;;;;;;;;4977602;28;20031;-64
2022/10/07 01:34:02;;;;;;;7.65;7.00;;;;;;;;;;4978586;28;20277;-64
2022/10/07 01:36:27;;;;;;;6.57;6.13;;;;;;;;;;4977230;28;20044;-64
2022/10/07 01:39:01;;;;;;;6.93;6.43;;;;;;;;;;4977984;28;20046;-64
2022/10/07 01:41:28;;;;;;;6.43;5.97;;;;;;;;;;4980956;28;20034;-64
2022/10/07 01:43:56;;;;;;;7.82;7.22;;;;;;;;;;4981476;28;20022;-64
2022/10/07 01:46:24;;;;;;;6.60;6.10;;;;;;;;;;4978893;28;20034;-64
2022/10/07 01:48:50;;;;;;;6.75;6.28;;;;;;;;;;4980708;28;20026;-64
2022/10/07 01:51:17;;;;;;;7.25;6.65;;;;;;;;;;4979759;28;20088;-64
2022/10/07 01:53:55;;;;;;;6.40;6.00;;;;;;;;;;4980481;28;20100;-64
2022/10/07 01:56:35;;;;;;;6.88;6.38;;;;;;;;;;4994544;28;20026;-64
2022/10/07 01:59:06;;;;;;;6.13;5.72;;;;;;;;;;4978969;28;20050;-64
2022/10/07 02:02:02;;;;;;;;;;;;;;;;;;4979087;28;20042;-64
2022/10/07 02:04:37;;;;;;;6.72;6.22;;;;;;;;;;4958548;28;19940;-64
2022/10/07 02:07:24;;;;;;;6.15;5.65;;;;;;;;;;4993550;28;20042;-64
2022/10/07 02:10:07;;;;;;;6.57;6.07;;;;;;;;;;4978571;28;20532;-64
2022/10/07 02:12:39;;;;;;;7.00;6.50;;;;;;;;;;4976892;28;20034;-64
2022/10/07 02:15:15;;;;;;;7.72;7.22;;;;;;;;;;4975545;28;20362;-64
2022/10/07 02:17:46;;;;;;;6.65;6.15;;;;;;;;;;4978576;28;20501;-64
2022/10/07 02:20:13;;;;;;;7.18;6.68;;;;;;;;;;4977672;28;20053;-64
2022/10/07 02:22:41;;;;;;;7.03;6.53;;;;;;;;;;4977837;28;20048;-63
2022/10/07 02:25:08;;;;;;;6.63;6.13;;;;;;;;;;4977068;28;20031;-63
2022/10/07 02:27:37;;;;;;;6.28;5.88;;;;;;;;;;4978074;28;20125;-64
2022/10/07 02:30:12;;;;;;;7.22;6.63;;;;;;;;;;4979157;28;20034;-64
2022/10/07 02:32:46;;;;;;;6.90;6.40;;;;;;;;;;4979570;28;20568;-64
2022/10/07 02:35:17;;;;;;;7.07;6.57;;;;;;;;;;4985575;28;20101;-64
2022/10/07 02:37:46;;;;;;;7.00;6.50;;;;;;;;;;4977444;28;20035;-63
2022/10/07 02:40:11;;;;;;;6.15;5.75;;;;;;;;;;4978851;28;20038;-63
2022/10/07 02:42:48;;;;;;;8.50;7.80;;;;;;;;;;4976985;28;20231;-63
2022/10/07 02:45:44;;;;;;;7.38;6.88;;;;;;;;;;4978373;28;20030;-64
2022/10/07 02:48:22;;;;;;;7.15;6.65;;;;;;;;;;4975804;28;20030;-64
2022/10/07 02:50:54;;;;;;;7.30;6.75;;;;;;;;;;4977628;28;20038;-64
2022/10/07 02:53:20;;;;;;;6.93;6.43;;;;;;;;;;4980184;28;20050;-64
2022/10/07 02:55:47;;;;;;;6.50;6.07;;;;;;;;;;4979129;28;20096;-64
2022/10/07 02:58:14;;;;;;;7.82;6.97;;;;;;;;;;4976686;28;20114;-63
2022/10/07 03:00:45;;;;;;;6.95;6.45;;;;;;;;;;4980737;28;20041;-64
2022/10/07 03:03:11;;;;;;;16.92;6.43;;;;;;;;;;4980298;28;20388;-64
2022/10/07 03:05:36;;;;;;;7.85;7.25;;;;;;;;;;4981703;28;20030;-64
2022/10/07 03:08:05;;;;;;;7.97;7.22;;;;;;;;;;4980629;28;20125;-64
2022/10/07 03:10:31;;;;;;;7.28;6.78;;;;;;;;;;4976445;28;20453;-64
2022/10/07 03:12:56;;;;;;;6.60;6.10;;;;;;;;;;4969040;28;20056;-64
2022/10/07 03:15:22;;;;;;;7.38;6.88;;;;;;;;;;4976624;28;20403;-63
2022/10/07 03:17:47;;;;;;;9.73;7.03;;;;;;;;;;4976889;28;20046;-64
2022/10/07 03:20:14;;;;;;;7.25;6.75;;;;;;;;;;4975333;28;20092;-64
2022/10/07 03:22:40;;;;;;;7.07;6.57;;;;;;;;;;4977782;28;20038;-64
2022/10/07 03:25:05;;;;;;;6.00;5.60;;;;;;;;;;4980621;28;20400;-64
2022/10/07 03:27:31;;;;;;;6.20;5.70;;;;;;;;;;4979218;28;20087;-63
2022/10/07 03:29:57;;;;;;;6.35;5.85;;;;;;;;;;4975204;28;20093;-63
2022/10/07 03:32:26;;;;;;;7.35;6.80;;;;;;;;;;4978075;28;20033;-63
2022/10/07 03:34:52;;;;;;;6.80;6.30;;;;;;;;;;4978394;28;20077;-64
2022/10/07 03:37:17;;;;;;;6.85;6.35;;;;;;;;;;4979265;28;20038;-62
2022/10/07 03:39:42;;;;;;;7.20;6.53;;;;;;;;;;4979669;28;20045;-63
2022/10/07 03:42:08;;;;;;;7.15;6.50;;;;;;;;;;4984336;28;20105;-62
2022/10/07 03:44:34;;;;;;;7.60;6.93;;;;;;;;;;4981033;28;20034;-62
2022/10/07 03:47:00;;;;;;;6.90;6.40;;;;;;;;;;4984066;28;20035;-62
2022/10/07 03:49:25;;;;;;;6.28;5.88;;;;;;;;;;4981582;28;20339;-62
2022/10/07 03:51:51;;;;;;;6.30;5.90;;;;;;;;;;4983825;28;20041;-62
2022/10/07 03:54:16;;;;;;;6.25;5.78;;;;;;;;;;4981547;28;20046;-62
2022/10/07 03:56:42;;;;;;;6.97;6.38;;;;;;;;;;4984684;28;20031;-62
2022/10/07 03:59:07;;;;;;;6.97;6.47;;;;;;;;;;4982077;28;20048;-62
2022/10/07 04:01:32;;;;;;;6.50;6.00;;;;;;;;;;4979269;28;20520;-62
2022/10/07 04:04:01;;;;;;;6.88;6.38;;;;;;;;;;4977948;28;20035;-62
2022/10/07 04:06:28;;;;;;;6.50;6.00;;;;;;;;;;4980767;28;20041;-62
2022/10/07 04:08:56;;;;;;;6.43;6.03;;;;;;;;;;4982448;28;20034;-62
2022/10/07 04:11:23;;;;;;;7.18;6.68;;;;;;;;;;4980503;28;20027;-62
2022/10/07 04:13:49;;;;;;;6.50;6.00;;;;;;;;;;4979060;28;20484;-62
2022/10/07 04:16:15;;;;;;;11.15;6.35;;;;;;;;;;4981130;28;20026;-62
2022/10/07 04:18:43;;;;;;;6.80;6.30;;;;;;;;;;4979514;28;20568;-62
2022/10/07 04:21:09;;;;;;;6.93;6.43;;;;;;;;;;4978683;28;20038;-62
2022/10/07 04:23:35;;;;;;;7.45;6.95;;;;;;;;;;4981316;28;20037;-64
2022/10/07 04:26:01;;;;;;;7.38;6.88;;;;;;;;;;4979596;28;20368;-62
2022/10/07 04:28:26;;;;;;;7.05;6.55;;;;;;;;;;4979532;28;20040;-62
2022/10/07 04:30:52;;;;;;;6.28;5.88;;;;;;;;;;4977932;28;20365;-62
2022/10/07 04:33:20;;;;;;;6.70;6.20;;;;;;;;;;4979239;28;20392;-62
2022/10/07 04:35:46;;;;;;;6.97;6.47;;;;;;;;;;4979602;28;20037;-62
2022/10/07 04:38:13;;;;;;;6.70;6.20;;;;;;;;;;4979862;28;20038;-62
2022/10/07 04:40:41;;;;;;;7.70;7.10;;;;;;;;;;4981746;28;20092;-62
2022/10/07 04:43:25;;;;;;;7.32;6.82;;;;;;;;;;4977094;28;20027;-62
2022/10/07 04:46:02;;;;;;;6.07;5.68;;;;;;;;;;4964894;28;20039;-62
2022/10/07 04:48:27;;;;;;;6.82;6.32;;;;;;;;;;4981811;28;20421;-62
2022/10/07 04:50:53;;;;;;;6.90;6.40;;;;;;;;;;4983308;28;20066;-61
2022/10/07 04:53:19;;;;;;;7.05;6.55;;;;;;;;;;4979880;28;20039;-63
2022/10/07 04:55:47;;;;;;;6.90;6.40;;;;;;;;;;4979817;28;20457;-62
2022/10/07 04:58:14;;;;;;;9.18;7.38;;;;;;;;;;4979348;28;20034;-62
2022/10/07 05:00:44;;;;;;;7.00;6.40;;;;;;;;;;4980190;28;20034;-62
2022/10/07 05:03:11;;;;;;;7.20;6.70;;;;;;;;;;4979148;28;20042;-62
2022/10/07 05:05:40;;;;;;;6.75;6.25;;;;;;;;;;4977614;28;20049;-61
2022/10/07 05:08:06;;;;;;;6.65;6.15;;;;;;;;;;4983082;28;20042;-61
2022/10/07 05:10:34;;;;;;;6.47;5.97;;;;;;;;;;4981885;28;20035;-61
2022/10/07 05:13:00;;;;;;;6.18;5.78;;;;;;;;;;4982205;28;20045;-61
2022/10/07 05:15:25;;;;;;;6.43;5.90;;;;;;;;;;4993815;28;20034;-61
2022/10/07 05:17:52;;;;;;;7.68;7.07;;;;;;;;;;4978888;28;20039;-61
2022/10/07 05:20:18;;;;;;;6.80;6.30;;;;;;;;;;4980800;28;20035;-61
2022/10/07 05:22:43;;;;;;;7.80;7.13;;;;;;;;;;4981700;28;20365;-63
2022/10/07 05:25:08;;;;;;;6.15;5.75;;;;;;;;;;4977674;28;20068;-65
2022/10/07 05:27:34;;;;;;;6.53;6.05;;;;;;;;;;4980344;28;20104;-61
2022/10/07 05:30:00;;;;;;;6.78;6.18;;;;;;;;;;4979763;28;20405;-62
2022/10/07 05:32:26;;;;;;;6.18;5.78;;;;;;;;;;4978298;28;20034;-62
2022/10/07 05:34:52;;;;;;;6.20;5.80;;;;;;;;;;4979109;28;20038;-62
2022/10/07 05:37:17;;;;;;;6.40;5.95;;;;;;;;;;4977576;28;20026;-61
2022/10/07 05:39:42;;;;;;;6.72;6.22;;;;;;;;;;4976460;28;20629;-61
2022/10/07 05:42:08;;;;;;;7.32;6.72;;;;;;;;;;4977586;28;20109;-61
2022/10/07 05:44:34;;;;;;;7.88;7.28;;;;;;;;;;4983996;28;20026;-61
2022/10/07 05:47:00;;;;;;;8.68;6.97;;;;;;;;;;4974993;28;20027;-61
2022/10/07 05:49:26;;;;;;;7.28;6.50;;;;;;;;;;4981453;28;20042;-61
2022/10/07 05:51:52;;;;;;;6.65;6.15;;;;;;;;;;4976918;28;20053;-61
2022/10/07 05:54:17;;;;;;;7.57;7.07;;;;;;;;;;4975958;28;20142;-61
2022/10/07 05:56:43;;;;;;;7.18;6.57;;;;;;;;;;4980054;28;20088;-61
2022/10/07 05:59:09;;;;;;;6.60;6.15;;;;;;;;;;4976738;28;20965;-61
2022/10/07 06:01:35;;;;;;;7.05;6.55;;;;;;;;;;4977475;28;20026;-61
2022/10/07 06:04:01;;;;;;;6.53;6.10;;;;;;;;;;4978988;28;20043;-61
2022/10/07 06:06:28;;;;;;;6.50;6.03;;;;;;;;;;4977715;28;20042;-61
2022/10/07 06:13:06;;;;;;;6.22;5.82;;;;;;;;;;4977165;28;20030;-61
2022/10/07 06:14:24;;;;;;;6.93;6.43;;;;;;;;;;4979019;28;20096;-61
2022/10/07 06:16:49;;;;;;;6.30;5.90;;;;;;;;;;4978584;28;20030;-61
2022/10/07 06:19:21;;;;;;;7.32;6.70;;;;;;;;;;4977588;28;20082;-61
2022/10/07 06:21:47;;;;;;;7.00;6.50;;;;;;;;;;4977479;28;20484;-61
2022/10/07 06:24:12;;;;;;;7.07;6.28;;;;;;;;;;4979320;28;20089;-61
2022/10/07 06:26:37;;;;;;;6.53;6.03;;;;;;;;;;4978481;28;20102;-61
2022/10/07 06:29:03;;;;;;;6.25;5.85;;;;;;;;;;4979184;28;20121;-61
2022/10/07 06:31:29;;;;;;;6.35;5.88;;;;;;;;;;4980169;28;20029;-61
2022/10/07 06:33:54;;;;;;;7.25;6.75;;;;;;;;;;4977515;28;20035;-61
2022/10/07 06:36:20;;;;;;;6.40;6.00;;;;;;;;;;4976103;28;20711;-61
2022/10/07 06:38:47;;;;;;;6.90;6.30;;;;;;;;;;4977563;28;20696;-61
2022/10/07 06:41:16;;;;;;;6.50;6.00;;;;;;;;;;4977071;28;20113;-61
2022/10/07 06:43:41;;;;;;;6.15;5.75;;;;;;;;;;4982990;28;20105;-61
2022/10/07 06:46:11;;;;;;;6.45;6.05;;;;;;;;;;4980999;28;20648;-61
2022/10/07 06:48:39;;;;;;;7.38;6.88;;;;;;;;;;4975351;28;20106;-61
2022/10/07 06:51:05;;;;;;;6.38;5.88;;;;;;;;;;4977318;28;20038;-61
2022/10/07 06:53:31;;;;;;;6.90;6.30;;;;;;;;;;4980050;28;20065;-61
2022/10/07 06:56:03;;;;;;;6.63;6.13;;;;;;;;;;4977127;28;20741;-61
2022/10/07 06:58:28;;;;;;;7.22;6.72;;;;;;;;;;4973532;28;20035;-61
2022/10/07 07:00:55;;;;;;;7.18;6.68;;;;;;;;;;4979539;28;20203;-61
2022/10/07 07:03:21;;;;;;;7.60;6.95;;;;;;;;;;4976415;28;20650;-61
2022/10/07 07:05:47;;;;;;;7.75;7.15;;;;;;;;;;4976816;28;20113;-61
2022/10/07 07:08:14;;;;;;;7.53;7.03;;;;;;;;;;4976936;28;20209;-61
2022/10/07 07:10:41;;;;;;;7.55;7.05;;;;;;;;;;4977651;28;20030;-61
2022/10/07 07:13:07;;;;;;;7.93;7.43;;;;;;;;;;4980515;28;20634;-61
2022/10/07 07:15:34;;;;;;;7.55;7.05;;;;;;;;;;4977043;28;20034;-61
2022/10/07 07:17:59;;;;;;;8.63;7.78;;;;;;;;;;4976604;28;20512;-62
2022/10/07 07:20:25;;;;;;;8.50;7.90;;;;;;;;;;4976395;28;20049;-61
2022/10/07 07:22:53;;;;;;;8.68;8.02;;;;;;;;;;4980918;28;20034;-61
2022/10/07 07:25:18;;;;;;;8.07;7.32;;;;;;;;;;4983325;28;20030;-61
2022/10/07 07:27:46;;;;;;;8.35;7.75;;;;;;;;;;4979134;28;20042;-61
2022/10/07 07:30:12;;;;;;;8.65;8.05;;;;;;;;;;4976912;28;20041;-61
2022/10/07 07:32:38;;;;;;;9.15;8.45;;;;;;;;;;4974576;28;20137;-61
2022/10/07 07:35:05;;;;;;;10.02;8.95;;;;;;;;;;4992318;28;20034;-62
2022/10/07 07:37:30;;;;;;;7.90;7.40;;;;;;;;;;4978327;28;20583;-61
2022/10/07 07:39:56;;;;;;;9.18;8.48;;;;;;;;;;4978298;28;20113;-61
2022/10/07 07:42:22;;;;;;;10.05;9.07;;;;;;;;;;4976193;28;20042;-61
2022/10/07 07:44:47;;;;;;;9.48;8.88;;;;;;;;;;4979353;28;20030;-61
2022/10/07 07:47:15;;;;;;;8.82;8.23;;;;;;;;;;4980067;28;20042;-61
2022/10/07 07:49:41;;;;;;;7.93;7.43;;;;;;;;;;4976444;28;20157;-61
2022/10/07 07:52:07;;;;;;;8.13;7.63;;;;;;;;;;4978172;28;20125;-61
2022/10/07 07:54:36;;;;;;;8.60;7.97;;;;;;;;;;4977631;28;20037;-61
2022/10/07 07:57:02;;;;;;;7.60;7.10;;;;;;;;;;4973395;28;20038;-61
2022/10/07 07:59:27;;;;;;;7.88;7.28;;;;;;;;;;4977787;28;20048;-62
2022/10/07 08:01:53;;;;;;;7.18;6.68;;;;;;;;;;4978394;28;20027;-62
2022/10/07 08:04:18;;;;;;;6.75;6.25;;;;;;;;;;4980145;28;20046;-62
2022/10/07 08:06:44;;;;;;;6.45;6.05;;;;;;;;;;4975413;28;20121;-62
2022/10/07 08:09:09;;;;;;;6.22;5.72;;;;;;;;;;4976133;28;20042;-62
2022/10/07 08:11:34;;;;;;;6.05;5.63;;;;;;;;;;4979409;28;20030;-62
2022/10/07 08:14:02;;;;;;;6.57;6.07;;;;;;;;;;4976679;28;20030;-62
2022/10/07 08:16:28;;;;;;;6.20;5.70;;;;;;;;;;4975516;28;20593;-62
2022/10/07 08:18:55;;;;;;;5.90;5.50;;;;;;;;;;4974742;28;20638;-62
2022/10/07 08:21:23;;;;;;;6.45;5.95;;;;;;;;;;4983328;28;20054;-62
2022/10/07 08:23:57;;;;;;;5.88;5.43;;;;;;;;;;4978388;28;20035;-63
2022/10/07 08:26:24;;;;;;;8.38;7.57;;;;;;;;;;4981706;28;20038;-62
2022/10/07 08:28:49;;;;;;;6.28;5.82;;;;;;;;;;4980880;28;20403;-62
2022/10/07 08:31:17;;;;;;;7.53;6.85;;;;;;;;;;4985264;28;20034;-62
2022/10/07 08:33:44;;;;;;;6.15;5.65;;;;;;;;;;4981717;28;20058;-62
2022/10/07 08:36:12;;;;;;;7.18;6.68;;;;;;;;;;4980594;28;20061;-62
2022/10/07 08:38:40;;;;;;;6.00;5.50;;;;;;;;;;4981194;28;20041;-62
2022/10/07 08:41:08;;;;;;;7.40;6.80;;;;;;;;;;4979874;28;20033;-62
2022/10/07 08:43:39;;;;;;;7.40;6.70;;;;;;;;;;4977699;28;20027;-62
2022/10/07 08:46:06;;;;;;;6.60;6.10;;;;;;;;;;4983257;28;20027;-62
2022/10/07 08:48:37;;;;;;;5.82;5.40;;;;;;;;;;4980542;28;20037;-62
2022/10/07 08:51:20;;;;;;;7.15;6.25;;;;;;;;;;4978821;28;20035;-62
2022/10/07 08:53:51;;;;;;;6.85;6.35;;;;;;;;;;4982924;28;20457;-62
2022/10/07 08:56:22;;;;;;;6.95;6.45;;;;;;;;;;4978258;28;20022;-62
2022/10/07 08:59:21;;;;;;;6.22;5.75;;;;;;;;;;4978271;28;20081;-63
2022/10/07 09:02:15;;;;;;;6.97;6.38;;;;;;;;;;4974511;28;20441;-62
2022/10/07 09:05:15;;;;;;;6.28;5.78;;;;;;;;;;4975955;28;20432;-62
2022/10/07 09:07:48;;;;;;;7.35;6.80;;;;;;;;;;4978180;28;20034;-61
2022/10/07 09:10:27;;;;;;;8.05;7.45;;;;;;;;;;4978055;28;20027;-62
2022/10/07 09:13:02;;;;;;;7.57;6.97;;;;;;;;;;4982746;28;20641;-62
2022/10/07 09:15:53;;;;;;;7.65;6.95;;;;;;;;;;4996615;28;20032;-61
2022/10/07 09:18:34;;;;;;;8.23;7.63;;;;;;;;;;4978432;28;20034;-62
2022/10/07 09:21:04;;;;;;;8.02;7.53;;;;;;;;;;4976633;28;20132;-61
2022/10/07 09:23:31;;;;;;;8.23;7.72;;;;;;;;;;4978725;28;20089;-61
2022/10/07 09:25:56;;;;;;;8.68;8.07;;;;;;;;;;4979406;28;20113;-61
2022/10/07 09:28:31;;;;;;;8.27;7.78;;;;;;;;;;4977366;28;20062;-61
2022/10/07 09:31:01;;;;;;;9.60;9.00;;;;;;;;;;4979124;28;20034;-61
2022/10/07 09:33:31;;;;;;;10.38;9.68;;;;;;;;;;4980355;28;20693;-61
2022/10/07 09:36:04;;;;;;;8.25;7.75;;;;;;;;;;4977790;28;20030;-61
2022/10/07 09:38:38;;;;;;;9.00;8.30;;;;;;;;;;4981066;28;20030;-61
2022/10/07 09:41:15;;;;;;;8.93;8.23;;;;;;;;;;4976483;28;20027;-64
2022/10/07 09:43:52;;;;;;;10.18;9.48;;;;;;;;;;4978805;28;20022;-64
2022/10/07 09:46:47;;;;;;;8.90;8.30;;;;;;;;;;4981240;28;20057;-64
2022/10/07 09:49:43;;;;;;;9.95;9.35;;;;;;;;;;4979475;28;20364;-64
2022/10/07 09:52:13;;;;;;;11.15;10.32;;;;;;;;;;4977389;28;20070;-64
2022/10/07 09:54:39;;;;;;;12.60;11.80;;;;;;;;;;4978468;28;20038;-64
2022/10/07 09:57:05;;;;;;;12.20;11.40;;;;;;;;;;4978752;28;20030;-63
2022/10/07 09:59:35;;;;;;;12.88;12.15;;;;;;;;;;4980926;28;20584;-64
2022/10/07 10:02:18;;;;;;;12.60;11.90;;;;;;;;;;4980048;28;20460;-61
2022/10/07 10:04:55;;;;;;;12.25;11.48;;;;;;;;;;4977409;28;20457;-62
2022/10/07 10:07:24;;;;;;;15.75;14.75;;;;;;;;;;4979487;28;20721;-60
2022/10/07 10:09:52;;;;;;;16.10;15.20;;;;;;;;;;4978879;28;20058;-61
2022/10/07 10:12:19;;;;;;;14.40;13.60;;;;;;;;;;4978017;28;20126;-61
2022/10/07 10:14:49;;;;;;;14.50;13.70;;;;;;;;;;4977904;28;20027;-61
2022/10/07 10:17:36;;;;;;;12.52;11.73;;;;;;;;;;4980232;28;20117;-61
2022/10/07 10:20:27;;;;;;;12.70;11.85;;;;;;;;;;4974657;28;20369;-61
2022/10/07 10:22:53;;;;;;;14.13;13.13;;;;;;;;;;4985808;28;20031;-62
2022/10/07 10:28:22;;;;;;;14.05;13.23;;;;;;;;;;4977119;28;20035;-62
2022/10/07 10:30:56;;;;;;;11.95;11.25;;;;;;;;;;4979526;28;20109;-62
2022/10/07 10:33:46;;;;;;;12.57;11.88;;;;;;;;;;4979880;28;20050;-62
2022/10/07 10:36:21;;;;;;;13.05;12.25;;;;;;;;;;4977026;28;20535;-62
2022/10/07 10:39:00;;;;;;;15.52;14.52;;;;;;;;;;4977947;28;20132;-63
2022/10/07 10:41:45;;;;;;;14.70;13.88;;;;;;;;;;4977552;28;20046;-62
2022/10/07 10:44:18;;;;;;;16.67;15.70;;;;;;;;;;4976845;28;20026;-59
2022/10/07 10:47:12;;;;;;;18.77;17.67;;;;;;;;;;4978377;28;20034;-61
2022/10/07 10:50:11;;;;;;;18.42;17.42;;;;;;;;;;4977492;28;20641;-61
2022/10/07 10:52:55;;;;;;;15.82;14.93;;;;;;;;;;4961468;28;20046;-61
2022/10/07 10:55:32;;;;;;;18.95;17.80;;;;;;;;;;4975429;28;20022;-60
2022/10/07 10:58:22;;;;;;;21.58;20.40;;;;;;;;;;4976518;28;20109;-60
2022/10/07 11:00:56;;;;;;;22.48;21.25;;;;;;;;;;4976975;28;20488;-60
2022/10/07 11:03:58;;;;;;;23.35;22.10;;;;;;;;;;4976245;28;20035;-60
2022/10/07 11:06:27;;;;;;;21.90;20.70;;;;;;;;;;4976922;28;20096;-60
2022/10/07 11:08:54;;;;;;;19.70;18.60;;;;;;;;;;4978129;28;20383;-60
2022/10/07 11:11:21;;;;;;;22.95;21.73;;;;;;;;;;4978211;28;20045;-60
2022/10/07 11:14:06;;;;;;;24.83;23.50;;;;;;;;;;4978243;28;20030;-60
2022/10/07 11:16:39;;;;;;;23.92;22.52;;;;;;;;;;4978746;28;20025;-60
2022/10/07 11:19:13;;;;;;;24.73;23.33;;;;;;;;;;4974878;28;20042;-61
2022/10/07 11:21:43;;;;;;;21.83;20.58;;;;;;;;;;4976461;28;20030;-62
2022/10/07 11:24:14;;;;;;;24.50;23.15;;;;;;;;;;4977075;28;20037;-61
2022/10/07 11:27:17;;;;;;;20.00;18.90;;;;;;;;;;4976689;28;20023;-61
2022/10/07 11:29:53;;;;;;;23.23;21.60;;;;;;;;;;4970530;28;20173;-61
2022/10/07 11:32:25;;;;;;;25.08;23.58;;;;;;;;;;4978778;28;20038;-62
2022/10/07 11:35:09;;;;;;;20.90;19.70;;;;;;;;;;4976846;28;20022;-62
2022/10/07 11:37:44;;;;;;;23.50;22.10;;;;;;;;;;4975604;28;20015;-62
2022/10/07 11:40:09;;;;;;;20.00;18.88;;;;;;;;;;4977257;28;20082;-62
2022/10/07 11:42:42;;;;;;;24.67;23.33;;;;;;;;;;4989730;28;20035;-62
2022/10/07 11:45:24;;;;;;;25.90;24.50;;;;;;;;;;4979136;28;20488;-62
2022/10/07 11:47:58;;;;;;;25.85;24.48;;;;;;;;;;4975871;28;20662;-62
2022/10/07 11:50:28;;;;;;;20.45;19.13;;;;;;;;;;4973125;28;20089;-61
2022/10/07 11:53:00;;;;;;;23.52;22.23;;;;;;;;;;4971044;28;20035;-61
2022/10/07 11:55:35;;;;;;;23.30;22.02;;;;;;;;;;4974340;28;20101;-61
2022/10/07 11:58:03;;;;;;;22.98;21.77;;;;;;;;;;4992927;28;20034;-60
2022/10/07 12:00:38;;;;;;;25.25;23.90;;;;;;;;;;4974851;28;20026;-59
2022/10/07 12:03:33;;;;;;;26.58;25.17;;;;;;;;;;4978716;28;20039;-59
2022/10/07 12:06:10;;;;;;;22.55;21.33;;;;;;;;;;4971500;28;20142;-61
2022/10/07 12:08:37;;;;;;;20.33;19.20;;;;;;;;;;4979911;28;20074;-60
2022/10/07 12:11:12;;;;;;;17.20;16.27;;;;;;;;;;4976338;28;20034;-60
2022/10/07 12:13:41;;;;;;;20.00;18.90;;;;;;;;;;4979239;28;20029;-62
2022/10/07 12:16:31;;;;;;;19.92;18.83;;;;;;;;;;4976381;28;20081;-61
2022/10/07 12:19:06;;;;;;;16.52;15.60;;;;;;;;;;4976471;28;20034;-61
2022/10/07 12:21:59;;;;;;;16.98;16.02;;;;;;;;;;4979026;28;20493;-61
2022/10/07 12:24:26;;;;;;;17.75;16.75;;;;;;;;;;4976666;28;20030;-61
2022/10/07 12:26:55;;;;;;;18.50;17.27;;;;;;;;;;4977400;28;20045;-61
2022/10/07 12:29:34;;;;;;;18.02;16.92;;;;;;;;;;4978700;28;20096;-61
2022/10/07 12:32:00;;;;;;;15.63;14.73;;;;;;;;;;4981323;28;20038;-62
2022/10/07 12:34:38;;;;;;;17.67;16.67;;;;;;;;;;4979289;28;20463;-61
2022/10/07 12:37:35;;;;;;;15.75;14.85;;;;;;;;;;4980240;28;20093;-61
2022/10/07 12:40:07;;;;;;;17.33;16.35;;;;;;;;;;4981752;28;20030;-62
2022/10/07 12:42:32;;;;;;;17.73;16.50;;;;;;;;;;4992692;28;20033;-62
2022/10/07 12:44:58;;;;;;;17.30;16.35;;;;;;;;;;4985722;28;20453;-62
2022/10/07 12:47:28;;;;;;;20.27;19.17;;;;;;;;;;4981265;28;20117;-62
2022/10/07 12:50:00;;;;;;;19.02;18.00;;;;;;;;;;4978025;28;20445;-62
2022/10/07 12:52:41;;;;;;;18.17;17.13;;;;;;;;;;4979566;28;20038;-61
2022/10/07 12:55:18;;;;;;;18.50;17.45;;;;;;;;;;4979239;28;20093;-62
2022/10/07 12:57:50;;;;;;;18.48;17.48;;;;;;;;;;4975310;28;20457;-63
2022/10/07 13:00:19;;;;;;;16.98;15.98;;;;;;;;;;4977586;28;20118;-61
2022/10/07 13:03:06;;;;;;;16.73;15.73;;;;;;;;;;4992238;28;20130;-61
2022/10/07 13:06:09;;;;;;;15.95;15.05;;;;;;;;;;4979085;28;20299;-62
2022/10/07 13:09:01;;;;;;;16.83;15.88;;;;;;;;;;4978724;28;20034;-62
2022/10/07 13:11:51;;;;;;;15.25;14.35;;;;;;;;;;4977479;28;20037;-62
2022/10/07 13:14:35;;;;;;;15.02;14.20;;;;;;;;;;4979836;28;20027;-61
2022/10/07 13:17:34;;;;;;;14.27;13.48;;;;;;;;;;4978068;28;20488;-62
2022/10/07 13:20:17;;;;;;;15.32;14.43;;;;;;;;;;4975749;28;20053;-62
2022/10/07 13:22:46;;;;;;;15.90;15.00;;;;;;;;;;4977475;28;20049;-62
2022/10/07 13:25:12;;;;;;;16.30;15.38;;;;;;;;;;4979960;28;20043;-63
2022/10/07 13:27:40;;;;;;;16.17;15.27;;;;;;;;;;4978745;28;20034;-61
2022/10/07 13:30:27;;;;;;;15.80;14.80;;;;;;;;;;4977611;28;20026;-61
2022/10/07 13:32:52;;;;;;;16.25;15.35;;;;;;;;;;4980192;28;20053;-61
2022/10/07 13:35:26;;;;;;;15.48;14.57;;;;;;;;;;4983325;28;20058;-61
2022/10/07 13:37:51;;;;;;;17.10;16.10;;;;;;;;;;4978190;28;20405;-63
2022/10/07 13:40:24;;;;;;;16.80;15.90;;;;;;;;;;4994306;28;20826;-61
2022/10/07 13:42:58;;;;;;;15.77;14.70;;;;;;;;;;4979272;28;20463;-61
2022/10/07 13:45:24;;;;;;;14.73;13.85;;;;;;;;;;4980411;28;20050;-60
2022/10/07 13:47:50;;;;;;;16.23;15.27;;;;;;;;;;4978557;28;20026;-61
2022/10/07 13:50:19;;;;;;;14.95;14.05;;;;;;;;;;4978419;28;20142;-61
2022/10/07 13:52:47;;;;;;;16.08;15.18;;;;;;;;;;4982343;28;20125;-61
2022/10/07 13:55:25;;;;;;;14.32;13.52;;;;;;;;;;4980037;28;20353;-60
2022/10/07 13:57:52;;;;;;;14.75;13.85;;;;;;;;;;4976134;28;20666;-60
2022/10/07 14:00:18;;;;;;;15.18;14.30;;;;;;;;;;4979542;28;20035;-61
2022/10/07 14:02:43;;;;;;;15.02;14.15;;;;;;;;;;4978527;28;20049;-61
2022/10/07 14:05:30;;;;;;;16.05;15.15;;;;;;;;;;4977072;28;20027;-60
2022/10/07 14:08:09;;;;;;;15.70;14.80;;;;;;;;;;4984448;28;20112;-61
2022/10/07 14:10:35;;;;;;;15.25;14.38;;;;;;;;;;4976876;28;20601;-62
2022/10/07 14:13:06;;;;;;;15.93;15.02;;;;;;;;;;4974388;28;20121;-60
2022/10/07 14:15:35;;;;;;;17.65;16.65;;;;;;;;;;4977582;28;20396;-60
2022/10/07 14:18:03;;;;;;;15.32;14.43;;;;;;;;;;4978689;28;20468;-60
2022/10/07 14:20:31;;;;;;;14.85;14.02;;;;;;;;;;4981802;28;20486;-60
2022/10/07 14:23:29;;;;;;;16.15;15.25;;;;;;;;;;4979820;28;20109;-59
2022/10/07 14:25:59;;;;;;;14.82;14.02;;;;;;;;;;4974096;28;20038;-60
2022/10/07 14:28:24;;;;;;;13.75;12.95;;;;;;;;;;4979272;28;20121;-61
2022/10/07 14:37:01;;;;;;;;;;;;;;;;;;4977638;28;20404;-59
2022/10/07 14:39:46;;;;;;;15.38;14.43;;;;;;;;;;5005710;28;19925;-60
2022/10/07 14:42:18;;;;;;;17.88;16.90;;;;;;;;;;4977440;28;20045;-60
2022/10/07 14:44:44;;;;;;;23.17;21.73;;;;;;;;;;4980282;28;20388;-60
2022/10/07 14:47:19;;;;;;;29.73;28.13;;;;;;;;;;5007489;28;20049;-60
2022/10/07 14:49:45;;;;;;;27.67;26.20;;;;;;;;;;4976070;28;20129;-60
2022/10/07 14:52:23;;;;;;;23.92;22.63;;;;;;;;;;4977293;28;20027;-59
2022/10/07 14:54:50;;;;;;;28.55;27.02;;;;;;;;;;4975707;28;20097;-60
2022/10/07 14:57:16;;;;;;;28.52;27.02;;;;;;;;;;4977035;28;20534;-60
2022/10/07 14:59:41;;;;;;;29.10;27.35;;;;;;;;;;4976719;28;20026;-60
2022/10/07 15:02:10;;;;;;;30.10;28.45;;;;;;;;;;4974956;28;20176;-59
2022/10/07 15:04:35;;;;;;;27.65;26.17;;;;;;;;;;4973605;28;20031;-60
2022/10/07 15:07:01;;;;;;;30.45;28.85;;;;;;;;;;4978348;28;20046;-60
2022/10/07 15:09:26;;;;;;;29.77;28.20;;;;;;;;;;4973939;28;20143;-60